Main page
METAR-TAF:

METAR-TAF

Airports :

Whitegrass Airport

Tanna, Vanuatu

latitude: 19-27-18S, longitude: 169-13-26E, elevation: 6 m

Current weather observation

The report was made 2 hours and 11 minutes ago, at 12:00 UTC
Calm wind
Temperature 27°C
Humidity 94%
Pressure 1011 hPa
Visibility 10 km or more
Broken clouds at a height of 2000 ft
Overcast at a height of 4000 ft

METAR: NVVW 291200Z 00000KT 9999 BKN020 OVC040 27/26 Q1011

Time: 01:11 (14:11 UTC)

Forecast

The report was made 4 hours and 11 minutes ago, at 10:00 UTC
Forecast valid from 29 at 12 UTC to 01 at 12 UTC
Wind 3 kt from variable directions
Visibility: 8000 m
Scattered clouds at a height of 1800 ft
Broken clouds at a height of 4000 ft
Few clouds at a height of 1200 ft
Broken clouds at a height of 1800 ft
Few clouds at a height of 2500 ft, Cumulonimbus.
rain showers

TAF: NVVW 291000Z 2912/0112 VRB03KT 9999 SCT018 BKN040 INTER 2912/2918 8000 SHRA FEW012 BKN018 FEW025CB

Weather observations and forecasts of more than 4000 airports (METAR and TAF reports).

The available stations are represented by yellow and red dots on the map.

Hover mouse over dot to see the name of the station.

Then click to see weather observations and forecasts.

To change the map : click on the green buttons with a black cross to zoom in, on the green button with a dash to zoom out, or on the green arrows for adjacent maps.


METAR-TAF: